createdAt,value
2023-07-31T00:00:18.085Z,4.38
2023-07-31T00:02:19.891Z,4.05
2023-07-31T00:04:21.370Z,4.32
2023-07-31T00:06:22.794Z,4.20
2023-07-31T00:08:24.539Z,4.53
2023-07-31T00:10:26.000Z,4.50
2023-07-31T00:12:27.478Z,4.00
2023-07-31T00:14:29.082Z,4.45
2023-07-31T00:16:30.627Z,4.40
2023-07-31T00:18:32.113Z,4.18
2023-07-31T00:20:33.922Z,4.05
2023-07-31T00:22:35.354Z,4.07
2023-07-31T00:24:36.815Z,4.40
2023-07-31T00:26:38.818Z,4.53
2023-07-31T00:28:40.572Z,4.38
2023-07-31T00:30:42.019Z,4.60
2023-07-31T00:32:43.727Z,3.92
2023-07-31T00:34:45.191Z,4.15
2023-07-31T00:36:46.624Z,4.35
2023-07-31T00:38:48.577Z,3.90
2023-07-31T00:40:50.116Z,4.55
2023-07-31T00:42:51.569Z,4.40
2023-07-31T00:44:53.180Z,4.47
2023-07-31T00:46:55.408Z,4.55
2023-07-31T00:48:57.780Z,5.05
2023-07-31T00:50:59.488Z,4.63
2023-07-31T00:53:01.485Z,4.88
2023-07-31T00:55:02.984Z,4.60
2023-07-31T00:57:04.801Z,4.38
2023-07-31T00:59:06.227Z,4.88
2023-07-31T01:01:07.711Z,5.15
2023-07-31T01:03:09.495Z,4.78
2023-07-31T01:05:11.117Z,4.95
2023-07-31T01:07:21.346Z,4.93
2023-07-31T01:09:45.899Z,4.43
2023-07-31T01:12:01.193Z,4.78
2023-07-31T01:14:02.932Z,4.88
2023-07-31T01:16:04.591Z,4.90
2023-07-31T01:18:06.030Z,4.47
2023-07-31T01:20:12.997Z,4.15
2023-07-31T01:22:34.088Z,4.55
2023-07-31T01:24:49.291Z,4.65
2023-07-31T01:26:58.470Z,4.20
2023-07-31T01:29:09.651Z,4.47
2023-07-31T01:31:16.163Z,4.18
2023-07-31T01:33:18.076Z,4.13
2023-07-31T01:35:20.082Z,4.32
2023-07-31T01:37:21.559Z,3.95
2023-07-31T01:39:23.008Z,3.70
2023-07-31T01:41:24.599Z,3.70
2023-07-31T01:43:26.123Z,4.35
2023-07-31T01:45:27.804Z,4.03
2023-07-31T01:47:29.350Z,4.30
2023-07-31T01:49:30.823Z,4.13
2023-07-31T01:51:32.321Z,3.90
2023-07-31T01:53:33.933Z,3.72
2023-07-31T01:55:35.569Z,4.10
2023-07-31T01:57:37.883Z,4.15
2023-07-31T01:59:39.461Z,3.95
2023-07-31T02:01:41.114Z,4.38
2023-07-31T02:03:42.662Z,4.47
2023-07-31T02:05:49.001Z,4.20
2023-07-31T02:07:52.695Z,4.70
2023-07-31T02:11:55.689Z,4.32
2023-07-31T02:13:57.389Z,4.05
2023-07-31T02:15:58.877Z,4.35
2023-07-31T02:18:00.670Z,4.20
2023-07-31T02:20:02.742Z,4.20
2023-07-31T02:22:04.560Z,4.20
2023-07-31T02:24:06.023Z,3.97
2023-07-31T02:26:07.459Z,4.05
2023-07-31T02:28:08.904Z,3.88
2023-07-31T02:30:10.958Z,3.85
2023-07-31T02:32:12.554Z,3.75
2023-07-31T02:34:14.565Z,4.13
2023-07-31T02:36:15.992Z,3.50
2023-07-31T02:38:17.576Z,3.80
2023-07-31T02:40:19.006Z,3.35
2023-07-31T02:42:20.511Z,3.42
2023-07-31T02:44:22.993Z,3.75
2023-07-31T02:46:24.459Z,3.80
2023-07-31T02:48:26.443Z,3.30
2023-07-31T02:50:28.030Z,3.10
2023-07-31T02:52:29.510Z,3.55
2023-07-31T02:54:31.026Z,2.97
2023-07-31T02:56:32.727Z,3.40
2023-07-31T02:58:34.183Z,3.08
2023-07-31T03:00:35.769Z,3.08
2023-07-31T03:02:37.630Z,3.28
2023-07-31T03:04:39.139Z,3.03
2023-07-31T03:06:40.933Z,3.33
2023-07-31T03:08:42.792Z,3.55
2023-07-31T03:10:44.206Z,3.08
2023-07-31T03:12:48.393Z,3.08
2023-07-31T03:14:49.891Z,3.17
2023-07-31T03:16:51.320Z,3.20
2023-07-31T03:18:52.848Z,3.17
2023-07-31T03:20:54.977Z,3.00
2023-07-31T03:22:56.397Z,3.42
2023-07-31T03:24:58.055Z,2.70
2023-07-31T03:26:59.655Z,3.17
2023-07-31T03:29:01.108Z,3.40
2023-07-31T03:31:02.886Z,2.75
2023-07-31T03:33:04.546Z,2.83
2023-07-31T03:35:06.477Z,2.70
2023-07-31T03:37:08.092Z,3.00
2023-07-31T03:39:09.588Z,3.30
2023-07-31T03:41:11.030Z,2.63
2023-07-31T03:43:13.127Z,3.00
2023-07-31T03:45:14.908Z,2.83
2023-07-31T03:47:16.514Z,3.00
2023-07-31T03:49:17.997Z,2.80
2023-07-31T03:51:19.548Z,2.65
2023-07-31T03:53:21.083Z,3.28
2023-07-31T03:55:22.615Z,2.70
2023-07-31T03:57:24.233Z,2.80
2023-07-31T03:59:25.674Z,3.13
2023-07-31T04:01:27.695Z,2.80
2023-07-31T04:03:29.370Z,2.75
2023-07-31T04:05:32.620Z,2.97
2023-07-31T04:07:34.359Z,3.05
2023-07-31T04:09:35.981Z,2.95
2023-07-31T04:11:37.416Z,2.83
2023-07-31T04:13:39.278Z,2.85
2023-07-31T04:15:40.812Z,2.90
2023-07-31T04:17:42.313Z,2.65
2023-07-31T04:19:43.836Z,3.75
2023-07-31T04:21:45.581Z,3.10
2023-07-31T04:23:47.046Z,2.58
2023-07-31T04:25:48.661Z,2.90
2023-07-31T04:27:50.402Z,2.63
2023-07-31T04:29:51.841Z,3.00
2023-07-31T04:31:53.371Z,2.80
2023-07-31T04:33:54.824Z,2.88
2023-07-31T04:35:56.262Z,2.83
2023-07-31T04:37:57.944Z,2.70
2023-07-31T04:39:59.548Z,2.58
2023-07-31T04:42:00.981Z,2.60
2023-07-31T04:44:02.847Z,3.40
2023-07-31T04:46:04.501Z,2.80
2023-07-31T04:48:06.087Z,2.97
2023-07-31T04:50:08.212Z,3.03
2023-07-31T04:52:09.746Z,2.47
2023-07-31T04:54:11.217Z,2.92
2023-07-31T04:56:12.844Z,3.10
2023-07-31T04:58:14.356Z,3.05
2023-07-31T05:00:15.994Z,2.58
2023-07-31T05:02:17.690Z,2.92
2023-07-31T05:04:19.732Z,2.70
2023-07-31T05:06:21.178Z,2.88
2023-07-31T05:08:22.997Z,2.95
2023-07-31T05:10:24.634Z,2.70
2023-07-31T05:12:26.250Z,2.75
2023-07-31T05:14:28.646Z,2.70
2023-07-31T05:16:30.323Z,2.90
2023-07-31T05:18:32.378Z,2.80
2023-07-31T05:20:34.045Z,3.00
2023-07-31T05:22:35.640Z,2.65
2023-07-31T05:24:37.064Z,2.78
2023-07-31T05:26:38.724Z,2.85
2023-07-31T05:28:41.717Z,2.88
2023-07-31T05:30:43.189Z,2.80
2023-07-31T05:32:45.244Z,2.67
2023-07-31T05:34:46.878Z,2.38
2023-07-31T05:36:48.325Z,2.90
2023-07-31T05:38:50.411Z,2.75
2023-07-31T05:40:52.021Z,2.60
2023-07-31T05:42:53.484Z,2.83
2023-07-31T05:44:55.321Z,2.50
2023-07-31T05:46:56.858Z,2.63
2023-07-31T05:48:58.293Z,2.85
2023-07-31T05:50:59.835Z,2.55
2023-07-31T05:53:01.376Z,2.90
2023-07-31T05:55:03.265Z,2.80
2023-07-31T05:57:05.176Z,2.80
2023-07-31T05:59:06.741Z,2.92
2023-07-31T06:01:08.225Z,2.58
2023-07-31T06:03:10.229Z,3.03
2023-07-31T06:05:12.218Z,2.60
2023-07-31T06:07:13.678Z,2.83
2023-07-31T06:09:15.292Z,3.10
2023-07-31T06:11:16.938Z,2.67
2023-07-31T06:13:18.402Z,3.25
2023-07-31T06:15:21.016Z,2.83
2023-07-31T06:17:22.646Z,2.70
2023-07-31T06:19:24.138Z,2.67
2023-07-31T06:21:25.914Z,2.55
2023-07-31T06:23:27.663Z,2.70
2023-07-31T06:25:29.204Z,2.67
2023-07-31T06:27:30.765Z,2.75
2023-07-31T06:29:32.580Z,3.00
2023-07-31T06:31:34.102Z,2.70
2023-07-31T06:33:35.860Z,2.80
2023-07-31T06:35:37.456Z,2.88
2023-07-31T06:37:38.922Z,2.97
2023-07-31T06:39:40.837Z,2.60
2023-07-31T06:41:43.557Z,2.42
2023-07-31T06:43:44.984Z,2.60
2023-07-31T06:45:46.615Z,2.90
2023-07-31T06:47:48.369Z,3.33
2023-07-31T06:49:49.807Z,2.47
2023-07-31T06:51:51.448Z,3.10
2023-07-31T06:53:52.960Z,2.53
2023-07-31T06:55:54.410Z,2.97
2023-07-31T06:57:56.779Z,2.50
2023-07-31T06:59:58.304Z,2.42
2023-07-31T07:01:59.749Z,2.47
2023-07-31T07:04:01.430Z,2.50
2023-07-31T07:06:03.102Z,2.47
2023-07-31T07:08:04.752Z,2.30
2023-07-31T07:10:06.852Z,2.75
2023-07-31T07:12:08.973Z,2.47
2023-07-31T07:14:10.442Z,2.30
2023-07-31T07:16:12.160Z,2.15
2023-07-31T07:18:13.757Z,2.33
2023-07-31T07:20:15.204Z,1.80
2023-07-31T07:22:16.866Z,2.10
2023-07-31T07:24:18.438Z,2.58
2023-07-31T07:26:20.949Z,2.58
2023-07-31T07:28:22.599Z,2.10
2023-07-31T07:30:25.609Z,2.10
2023-07-31T07:32:27.147Z,2.70
2023-07-31T07:34:29.483Z,2.20
2023-07-31T07:36:30.996Z,2.10
2023-07-31T07:38:32.432Z,2.10
2023-07-31T07:40:34.627Z,1.92
2023-07-31T07:42:36.152Z,1.67
2023-07-31T07:44:37.586Z,1.90
2023-07-31T07:46:39.656Z,1.70
2023-07-31T07:48:41.320Z,1.80
2023-07-31T07:50:42.780Z,1.83
2023-07-31T07:52:44.520Z,1.38
2023-07-31T07:54:45.960Z,1.77
2023-07-31T07:56:47.396Z,1.65
2023-07-31T07:58:52.463Z,2.03
2023-07-31T08:00:53.982Z,2.30
2023-07-31T08:02:55.583Z,2.03
2023-07-31T08:04:57.392Z,1.60
2023-07-31T08:06:58.829Z,1.50
2023-07-31T08:09:00.982Z,1.50
2023-07-31T08:11:03.137Z,1.60
2023-07-31T08:13:04.591Z,1.77
2023-07-31T08:15:06.873Z,1.63
2023-07-31T08:17:08.623Z,1.20
2023-07-31T08:19:10.208Z,1.48
2023-07-31T08:21:11.886Z,1.63
2023-07-31T08:23:13.785Z,1.60
2023-07-31T08:25:15.323Z,1.50
2023-07-31T08:27:16.758Z,1.63
2023-07-31T08:29:18.610Z,1.20
2023-07-31T08:31:20.428Z,1.50
2023-07-31T08:33:21.948Z,1.55
2023-07-31T08:35:25.329Z,1.40
2023-07-31T08:37:26.772Z,1.50
2023-07-31T08:39:28.219Z,1.20
2023-07-31T08:41:30.059Z,1.40
2023-07-31T08:43:32.047Z,1.67
2023-07-31T08:45:33.675Z,1.65
2023-07-31T08:47:36.175Z,1.35
2023-07-31T08:49:39.540Z,1.65
2023-07-31T08:51:42.189Z,1.15
2023-07-31T08:53:43.741Z,1.40
2023-07-31T08:55:45.946Z,1.35
2023-07-31T08:57:48.110Z,1.45
2023-07-31T08:59:50.559Z,1.13
2023-07-31T09:01:55.864Z,1.40
2023-07-31T09:04:00.660Z,1.40
2023-07-31T09:06:03.749Z,1.30
2023-07-31T09:08:06.111Z,1.27
2023-07-31T09:10:07.911Z,1.30
2023-07-31T09:12:09.755Z,1.60
2023-07-31T09:14:11.718Z,1.30
2023-07-31T09:16:13.411Z,1.40
2023-07-31T09:18:15.080Z,1.10
2023-07-31T09:20:21.597Z,1.40
2023-07-31T09:22:36.817Z,1.10
2023-07-31T09:24:38.717Z,1.10
2023-07-31T09:26:40.640Z,1.20
2023-07-31T09:28:42.461Z,1.45
2023-07-31T09:30:49.205Z,1.27
2023-07-31T09:32:52.300Z,1.40
2023-07-31T09:34:53.767Z,1.15
2023-07-31T09:36:55.399Z,1.10
2023-07-31T09:38:56.972Z,0.90
2023-07-31T09:40:59.816Z,1.17
2023-07-31T09:43:06.405Z,1.10
2023-07-31T09:45:09.305Z,1.40
2023-07-31T09:47:26.634Z,0.90
2023-07-31T09:49:30.150Z,1.30
2023-07-31T09:51:31.626Z,1.00
2023-07-31T09:53:33.056Z,1.20
2023-07-31T09:55:35.374Z,0.93
2023-07-31T09:57:42.134Z,1.30
2023-07-31T09:59:43.675Z,1.20
2023-07-31T10:01:46.918Z,1.00
2023-07-31T10:03:48.886Z,1.30
2023-07-31T10:05:52.136Z,1.30
2023-07-31T10:07:56.496Z,1.08
2023-07-31T10:10:04.109Z,1.17
2023-07-31T10:12:12.160Z,1.13
2023-07-31T10:14:14.712Z,1.20
2023-07-31T10:16:17.053Z,1.88
2023-07-31T10:18:19.669Z,1.20
2023-07-31T10:20:22.119Z,1.30
2023-07-31T10:22:24.689Z,1.50
2023-07-31T10:24:26.780Z,1.33
2023-07-31T10:26:28.444Z,1.35
2023-07-31T10:28:30.534Z,1.20
2023-07-31T10:30:34.714Z,1.20
2023-07-31T10:32:37.151Z,1.50
2023-07-31T10:34:41.343Z,1.50
2023-07-31T10:36:42.807Z,1.33
2023-07-31T10:38:44.578Z,1.20
2023-07-31T10:40:46.140Z,1.30
2023-07-31T10:42:49.802Z,1.23
2023-07-31T10:44:51.295Z,1.10
2023-07-31T10:46:56.252Z,1.20
2023-07-31T10:49:02.839Z,1.30
2023-07-31T10:51:09.653Z,1.23
2023-07-31T10:53:24.367Z,1.42
2023-07-31T10:55:43.263Z,1.35
2023-07-31T10:57:48.224Z,1.13
2023-07-31T10:59:50.786Z,1.00
2023-07-31T11:01:57.069Z,1.40
2023-07-31T11:03:58.904Z,1.30
2023-07-31T11:06:02.793Z,1.15
2023-07-31T11:08:14.883Z,1.60
2023-07-31T11:10:20.617Z,1.55
2023-07-31T11:12:22.352Z,1.35
2023-07-31T11:14:24.218Z,1.00
2023-07-31T11:16:26.759Z,1.60
2023-07-31T11:18:28.578Z,1.27
2023-07-31T11:20:33.855Z,1.40
2023-07-31T11:22:36.621Z,1.30
2023-07-31T11:24:38.130Z,1.60
2023-07-31T11:26:39.915Z,1.40
2023-07-31T11:28:42.026Z,1.33
2023-07-31T11:30:45.068Z,1.30
2023-07-31T11:32:46.883Z,1.52
2023-07-31T11:34:55.649Z,1.25
2023-07-31T11:36:57.746Z,1.13
2023-07-31T11:39:09.333Z,1.10
2023-07-31T11:41:10.927Z,1.10
2023-07-31T11:43:12.421Z,1.60
2023-07-31T11:45:14.013Z,1.38
2023-07-31T11:47:17.312Z,1.40
2023-07-31T11:49:18.770Z,1.40
2023-07-31T11:51:22.265Z,1.33
2023-07-31T11:55:29.992Z,1.67
2023-07-31T11:57:31.822Z,1.40
2023-07-31T11:59:33.834Z,1.70
2023-07-31T12:01:35.423Z,1.63
2023-07-31T12:03:37.323Z,1.83
2023-07-31T12:05:39.281Z,1.90
2023-07-31T12:07:51.853Z,1.35
2023-07-31T12:09:57.179Z,1.30
2023-07-31T12:11:58.812Z,1.20
2023-07-31T12:14:00.260Z,1.33
2023-07-31T12:16:03.381Z,1.63
2023-07-31T12:18:06.951Z,1.48
2023-07-31T12:20:09.677Z,1.27
2023-07-31T12:22:15.826Z,1.57
2023-07-31T12:24:19.897Z,1.10
2023-07-31T12:26:21.406Z,1.48
2023-07-31T12:28:26.006Z,1.40
2023-07-31T12:30:33.413Z,1.00
2023-07-31T12:32:34.886Z,1.45
2023-07-31T12:34:43.792Z,1.33
2023-07-31T12:36:45.573Z,1.30
2023-07-31T12:38:47.096Z,1.60
2023-07-31T12:40:48.553Z,1.38
2023-07-31T12:42:50.250Z,1.40
2023-07-31T12:44:51.688Z,1.40
2023-07-31T12:46:53.133Z,1.75
2023-07-31T12:48:55.366Z,1.90
2023-07-31T12:50:56.908Z,1.60
2023-07-31T12:52:58.987Z,1.52
2023-07-31T12:55:00.886Z,1.30
2023-07-31T12:57:02.328Z,1.70
2023-07-31T12:59:03.796Z,1.50
2023-07-31T13:01:05.715Z,1.50
2023-07-31T13:03:07.293Z,1.70
2023-07-31T13:05:09.646Z,1.63
2023-07-31T13:07:11.422Z,1.80
2023-07-31T13:09:13.040Z,1.30
2023-07-31T13:11:14.520Z,1.50
2023-07-31T13:13:16.269Z,1.40
2023-07-31T13:15:17.793Z,1.67
2023-07-31T13:17:19.477Z,1.58
2023-07-31T13:19:21.091Z,1.60
2023-07-31T13:21:22.519Z,1.60
2023-07-31T13:23:23.956Z,1.42
2023-07-31T13:25:25.715Z,1.50
2023-07-31T13:27:27.165Z,1.60
2023-07-31T13:29:28.606Z,2.13
2023-07-31T13:31:30.450Z,2.72
2023-07-31T13:33:38.001Z,2.00
2023-07-31T13:35:40.869Z,1.38
2023-07-31T13:37:42.775Z,1.50
2023-07-31T13:39:44.473Z,1.90
2023-07-31T13:41:45.961Z,1.63
2023-07-31T13:43:47.754Z,1.60
2023-07-31T13:45:49.197Z,1.55
2023-07-31T13:47:51.349Z,1.63
2023-07-31T13:49:53.021Z,1.90
2023-07-31T13:51:54.454Z,1.58
2023-07-31T13:53:55.886Z,1.75
2023-07-31T13:55:57.503Z,1.70
2023-07-31T13:57:58.958Z,1.27
2023-07-31T14:00:00.429Z,1.70
2023-07-31T14:02:03.933Z,1.55
2023-07-31T14:04:05.459Z,2.05
2023-07-31T14:06:07.127Z,1.73
2023-07-31T14:08:08.738Z,2.63
2023-07-31T14:10:10.572Z,1.80
2023-07-31T14:12:12.061Z,1.90
2023-07-31T14:14:13.666Z,1.63
2023-07-31T14:16:15.258Z,1.85
2023-07-31T14:18:16.949Z,1.63
2023-07-31T14:20:19.094Z,1.35
2023-07-31T14:22:31.208Z,1.45
2023-07-31T14:24:33.061Z,1.40
2023-07-31T14:26:34.574Z,2.03
2023-07-31T14:28:36.150Z,1.60
2023-07-31T14:30:37.696Z,1.73
2023-07-31T14:32:39.217Z,1.92
2023-07-31T14:34:40.905Z,1.63
2023-07-31T14:36:42.515Z,1.65
2023-07-31T14:38:44.280Z,1.80
2023-07-31T14:40:45.926Z,2.00
2023-07-31T14:42:47.444Z,1.52
2023-07-31T14:44:48.947Z,1.70
2023-07-31T14:46:50.521Z,1.73
2023-07-31T14:48:51.972Z,1.55
2023-07-31T14:50:53.650Z,1.50
2023-07-31T14:52:55.397Z,1.70
2023-07-31T14:54:56.841Z,1.63
2023-07-31T14:56:58.364Z,2.00
2023-07-31T14:59:00.191Z,1.75
2023-07-31T15:01:01.654Z,1.80
2023-07-31T15:03:04.101Z,1.80
2023-07-31T15:05:06.373Z,1.90
2023-07-31T15:07:07.809Z,1.98
2023-07-31T15:09:09.486Z,1.67
2023-07-31T15:11:11.135Z,1.98
2023-07-31T15:13:12.602Z,2.40
2023-07-31T15:15:16.139Z,1.90
2023-07-31T15:19:19.026Z,1.55
2023-07-31T15:21:20.573Z,2.17
2023-07-31T15:23:22.057Z,2.03
2023-07-31T15:25:23.506Z,1.65
2023-07-31T15:27:25.147Z,1.80
2023-07-31T15:29:26.746Z,1.95
2023-07-31T15:31:28.605Z,1.70
2023-07-31T15:33:30.195Z,1.90
2023-07-31T15:35:31.857Z,1.88
2023-07-31T15:37:33.372Z,1.80
2023-07-31T15:39:34.949Z,1.90
2023-07-31T15:41:37.673Z,1.98
2023-07-31T15:43:39.109Z,1.43
2023-07-31T15:45:40.658Z,1.73
2023-07-31T15:47:42.260Z,1.50
2023-07-31T15:49:43.690Z,1.55
2023-07-31T15:51:45.483Z,1.30
2023-07-31T15:53:47.316Z,1.52
2023-07-31T15:55:48.752Z,1.63
2023-07-31T15:57:50.380Z,1.65
2023-07-31T15:59:51.960Z,1.50
2023-07-31T16:01:53.617Z,1.35
2023-07-31T16:03:55.288Z,1.58
2023-07-31T16:05:56.870Z,1.02
2023-07-31T16:07:58.396Z,1.20
2023-07-31T16:10:00.058Z,1.58
2023-07-31T16:12:01.671Z,1.10
2023-07-31T16:14:03.092Z,1.13
2023-07-31T16:16:04.954Z,1.40
2023-07-31T16:18:06.640Z,1.05
2023-07-31T16:20:08.589Z,0.90
2023-07-31T16:22:10.261Z,1.10
2023-07-31T16:24:11.717Z,1.35
2023-07-31T16:26:13.156Z,1.20
2023-07-31T16:28:14.726Z,1.20
2023-07-31T16:30:16.355Z,1.00
2023-07-31T16:32:17.971Z,1.17
2023-07-31T16:34:19.773Z,1.20
2023-07-31T16:36:21.374Z,1.00
2023-07-31T16:38:22.798Z,1.10
2023-07-31T16:40:24.352Z,0.98
2023-07-31T16:42:25.932Z,1.90
2023-07-31T16:44:27.366Z,1.17
2023-07-31T16:46:29.019Z,1.10
2023-07-31T16:48:30.536Z,1.05
2023-07-31T16:50:31.966Z,1.10
2023-07-31T16:52:33.512Z,1.35
2023-07-31T16:54:35.343Z,1.08
2023-07-31T16:56:56.956Z,1.67
2023-07-31T16:58:58.418Z,1.30
2023-07-31T17:01:00.218Z,1.20
2023-07-31T17:03:02.563Z,1.10
2023-07-31T17:05:04.545Z,1.23
2023-07-31T17:07:06.249Z,1.38
2023-07-31T17:09:07.845Z,1.50
2023-07-31T17:11:09.668Z,1.17
2023-07-31T17:13:11.220Z,1.60
2023-07-31T17:15:12.670Z,1.45
2023-07-31T17:17:14.413Z,1.27
2023-07-31T17:19:16.116Z,1.75
2023-07-31T17:21:17.534Z,1.65
2023-07-31T17:23:19.134Z,1.35
2023-07-31T17:25:20.676Z,1.58
2023-07-31T17:27:22.116Z,2.00
2023-07-31T17:29:29.604Z,1.40
2023-07-31T17:31:31.628Z,1.90
2023-07-31T17:33:33.136Z,1.98
2023-07-31T17:35:35.215Z,1.90
2023-07-31T17:37:36.707Z,1.70
2023-07-31T17:39:38.136Z,2.03
2023-07-31T17:41:39.776Z,1.63
2023-07-31T17:43:41.330Z,1.65
2023-07-31T17:45:42.758Z,2.97
2023-07-31T17:47:45.268Z,3.40
2023-07-31T17:49:47.024Z,3.15
2023-07-31T17:51:48.473Z,3.22
2023-07-31T17:53:50.080Z,2.92
2023-07-31T17:55:52.216Z,2.30
2023-07-31T17:57:53.672Z,2.17
2023-07-31T17:59:55.281Z,2.15
2023-07-31T18:01:57.057Z,2.00
2023-07-31T18:03:58.620Z,2.35
2023-07-31T18:06:00.386Z,2.42
2023-07-31T18:08:01.984Z,2.30
2023-07-31T18:10:03.587Z,2.10
2023-07-31T18:12:05.733Z,2.25
2023-07-31T18:14:08.631Z,2.10
2023-07-31T18:16:10.328Z,2.38
2023-07-31T18:18:12.085Z,2.30
2023-07-31T18:20:13.737Z,2.03
2023-07-31T18:22:15.182Z,2.50
2023-07-31T18:24:16.861Z,2.60
2023-07-31T18:26:18.387Z,2.40
2023-07-31T18:28:19.867Z,3.28
2023-07-31T18:30:21.472Z,2.30
2023-07-31T18:32:23.054Z,4.13
2023-07-31T18:34:24.493Z,5.30
2023-07-31T18:36:26.069Z,4.43
2023-07-31T18:38:27.588Z,4.28
2023-07-31T18:40:29.006Z,4.30
2023-07-31T18:42:30.471Z,4.47
2023-07-31T18:44:31.997Z,3.85
2023-07-31T18:46:33.548Z,4.18
2023-07-31T18:48:35.164Z,3.58
2023-07-31T18:50:41.697Z,4.05
2023-07-31T18:52:43.178Z,3.25
2023-07-31T18:54:44.734Z,3.30
2023-07-31T18:56:46.327Z,3.45
2023-07-31T18:58:47.982Z,2.80
2023-07-31T19:00:49.409Z,3.03
2023-07-31T19:02:50.976Z,3.33
2023-07-31T19:04:52.525Z,3.40
2023-07-31T19:06:54.221Z,2.70
2023-07-31T19:08:55.683Z,2.70
2023-07-31T19:10:57.209Z,2.72
2023-07-31T19:12:58.751Z,3.08
2023-07-31T19:15:00.328Z,3.55
2023-07-31T19:17:01.801Z,2.85
2023-07-31T19:19:03.308Z,3.08
2023-07-31T19:21:04.902Z,2.80
2023-07-31T19:23:06.316Z,3.20
2023-07-31T19:25:08.418Z,3.15
2023-07-31T19:27:09.976Z,3.30
2023-07-31T19:29:11.404Z,2.75
2023-07-31T19:31:12.843Z,3.50
2023-07-31T19:33:14.531Z,5.75
2023-07-31T19:35:16.403Z,4.88
2023-07-31T19:37:17.935Z,4.65
2023-07-31T19:39:19.523Z,3.90
2023-07-31T19:41:21.028Z,3.25
2023-07-31T19:43:22.679Z,3.95
2023-07-31T19:45:24.465Z,4.80
2023-07-31T19:47:25.993Z,4.55
2023-07-31T19:49:28.991Z,3.72
2023-07-31T19:51:30.517Z,4.20
2023-07-31T19:53:31.965Z,4.13
2023-07-31T19:55:33.571Z,3.97
2023-07-31T19:57:35.112Z,4.20
2023-07-31T19:59:36.544Z,3.60
2023-07-31T20:01:38.239Z,3.20
2023-07-31T20:03:39.824Z,3.53
2023-07-31T20:05:41.294Z,4.20
2023-07-31T20:07:42.973Z,3.03
2023-07-31T20:09:44.446Z,3.38
2023-07-31T20:11:45.864Z,3.38
2023-07-31T20:13:47.524Z,3.22
2023-07-31T20:15:49.091Z,3.10
2023-07-31T20:17:51.332Z,3.20
2023-07-31T20:19:52.973Z,3.10
2023-07-31T20:21:54.597Z,2.95
2023-07-31T20:23:56.036Z,3.70
2023-07-31T20:25:57.574Z,3.28
2023-07-31T20:27:59.331Z,3.80
2023-07-31T20:30:00.832Z,3.30
2023-07-31T20:32:02.413Z,3.40
2023-07-31T20:34:04.014Z,3.60
2023-07-31T20:36:05.557Z,3.00
2023-07-31T20:38:07.093Z,2.65
2023-07-31T20:40:09.310Z,3.67
2023-07-31T20:42:10.776Z,3.58
2023-07-31T20:44:12.406Z,9.38
2023-07-31T20:46:14.050Z,4.28
2023-07-31T20:48:15.624Z,3.30
2023-07-31T20:50:17.294Z,3.00
2023-07-31T20:52:18.809Z,3.08
2023-07-31T20:54:20.235Z,3.10
2023-07-31T20:56:21.827Z,2.97
2023-07-31T20:58:23.394Z,3.03
2023-07-31T21:00:24.970Z,3.20
2023-07-31T21:02:26.761Z,6.30
2023-07-31T21:04:28.500Z,4.70
2023-07-31T21:06:29.985Z,3.85
2023-07-31T21:08:31.626Z,3.60
2023-07-31T21:10:38.531Z,4.63
2023-07-31T21:12:40.059Z,3.50
2023-07-31T21:14:44.712Z,3.10
2023-07-31T21:16:46.270Z,3.42
2023-07-31T21:18:47.725Z,3.28
2023-07-31T21:20:49.454Z,3.58
2023-07-31T21:22:51.061Z,3.05
2023-07-31T21:24:53.160Z,6.03
2023-07-31T21:26:54.696Z,4.10
2023-07-31T21:28:56.346Z,5.07
2023-07-31T21:30:57.797Z,4.13
2023-07-31T21:32:59.290Z,4.57
2023-07-31T21:35:00.805Z,4.22
2023-07-31T21:37:02.224Z,4.10
2023-07-31T21:39:03.821Z,5.07
2023-07-31T21:41:05.465Z,5.35
2023-07-31T21:43:06.905Z,4.43
2023-07-31T21:45:08.668Z,3.60
2023-07-31T21:47:10.300Z,4.43
2023-07-31T21:49:11.800Z,3.20
2023-07-31T21:51:13.489Z,3.60
2023-07-31T21:53:14.961Z,3.70
2023-07-31T21:55:16.412Z,3.85
2023-07-31T21:57:17.942Z,3.45
2023-07-31T21:59:19.450Z,3.92
2023-07-31T22:01:20.932Z,3.22
2023-07-31T22:03:22.611Z,3.90
2023-07-31T22:05:24.172Z,3.45
2023-07-31T22:07:25.636Z,3.60
2023-07-31T22:09:27.274Z,3.80
2023-07-31T22:11:28.790Z,3.70
2023-07-31T22:13:31.422Z,3.80
2023-07-31T22:15:32.995Z,3.90
2023-07-31T22:17:34.660Z,3.58
2023-07-31T22:19:36.160Z,3.63
2023-07-31T22:21:37.793Z,3.67
2023-07-31T22:23:39.473Z,4.00
2023-07-31T22:25:40.956Z,3.65
2023-07-31T22:27:42.584Z,3.70
2023-07-31T22:29:44.330Z,3.85
2023-07-31T22:31:45.824Z,3.95
2023-07-31T22:33:47.433Z,3.85
2023-07-31T22:35:50.005Z,4.00
2023-07-31T22:37:51.436Z,4.00
2023-07-31T22:39:53.064Z,3.47
2023-07-31T22:41:54.902Z,3.40
2023-07-31T22:43:56.367Z,3.80
2023-07-31T22:45:58.038Z,4.10
2023-07-31T22:47:59.672Z,3.67
2023-07-31T22:50:01.200Z,3.58
2023-07-31T22:52:02.649Z,3.90
2023-07-31T22:54:04.143Z,4.30
2023-07-31T22:56:06.807Z,4.32
2023-07-31T22:58:08.655Z,4.00
2023-07-31T23:00:10.632Z,4.38
2023-07-31T23:02:12.131Z,4.30
2023-07-31T23:04:13.860Z,4.50
2023-07-31T23:06:15.358Z,4.43
2023-07-31T23:08:16.807Z,3.97
2023-07-31T23:10:18.551Z,3.97
2023-07-31T23:12:19.990Z,4.60
2023-07-31T23:14:21.410Z,4.63
2023-07-31T23:16:23.236Z,4.10
2023-07-31T23:18:24.757Z,4.20
2023-07-31T23:20:26.173Z,4.60
2023-07-31T23:22:27.947Z,3.97
2023-07-31T23:24:29.381Z,4.22
2023-07-31T23:26:30.848Z,3.80
2023-07-31T23:28:32.750Z,4.28
2023-07-31T23:30:34.256Z,4.82
2023-07-31T23:32:35.747Z,4.50
2023-07-31T23:34:37.721Z,4.50
2023-07-31T23:36:42.389Z,4.47
2023-07-31T23:38:44.108Z,4.93
2023-07-31T23:40:45.854Z,4.20
2023-07-31T23:42:47.304Z,4.25
2023-07-31T23:44:57.030Z,4.70
2023-07-31T23:47:10.321Z,4.20
2023-07-31T23:49:11.759Z,4.47
2023-07-31T23:51:13.303Z,3.75
2023-07-31T23:53:15.384Z,4.00
2023-07-31T23:55:17.824Z,3.40
2023-07-31T23:57:20.161Z,4.22
2023-07-31T23:59:22.048Z,4.00
